createdAt,value
2022-07-31T00:01:34.737Z,16.17
2022-07-31T00:04:19.927Z,11.93
2022-07-31T00:07:05.579Z,12.40
2022-07-31T00:09:54.403Z,8.77
2022-07-31T00:12:39.774Z,10.07
2022-07-31T00:15:25.179Z,9.18
2022-07-31T00:18:10.211Z,5.05
2022-07-31T00:20:55.604Z,5.07
2022-07-31T00:23:41.132Z,4.63
2022-07-31T00:26:26.149Z,6.82
2022-07-31T00:29:11.554Z,5.95
2022-07-31T00:32:01.829Z,8.55
2022-07-31T00:34:47.165Z,4.75
2022-07-31T00:37:35.596Z,5.38
2022-07-31T00:40:20.851Z,6.32
2022-07-31T00:43:05.852Z,5.72
2022-07-31T00:45:53.245Z,13.55
2022-07-31T00:48:44.619Z,7.45
2022-07-31T00:51:30.214Z,6.07
2022-07-31T00:54:22.638Z,6.00
2022-07-31T00:57:08.700Z,6.53
2022-07-31T00:59:54.099Z,5.22
2022-07-31T01:02:46.536Z,5.05
2022-07-31T01:05:32.321Z,5.15
2022-07-31T01:08:17.508Z,7.15
2022-07-31T01:11:08.476Z,5.63
2022-07-31T01:14:02.942Z,6.18
2022-07-31T01:16:51.516Z,5.95
2022-07-31T01:19:46.862Z,5.65
2022-07-31T01:23:15.941Z,7.13
2022-07-31T01:26:43.488Z,6.53
2022-07-31T01:29:32.765Z,9.50
2022-07-31T01:32:27.562Z,5.72
2022-07-31T01:35:30.771Z,12.88
2022-07-31T01:38:24.222Z,7.50
2022-07-31T01:41:13.187Z,7.40
2022-07-31T01:44:00.997Z,6.65
2022-07-31T01:46:48.117Z,7.47
2022-07-31T01:49:36.269Z,8.93
2022-07-31T01:52:25.957Z,8.02
2022-07-31T01:55:13.575Z,11.75
2022-07-31T01:58:00.207Z,9.90
2022-07-31T02:00:47.105Z,8.05
2022-07-31T02:03:43.582Z,7.15
2022-07-31T02:06:33.336Z,5.72
2022-07-31T02:09:22.405Z,6.57
2022-07-31T02:12:11.982Z,6.68
2022-07-31T02:17:45.997Z,8.80
2022-07-31T02:20:51.058Z,15.02
2022-07-31T02:23:36.536Z,6.15
2022-07-31T02:26:27.088Z,5.78
2022-07-31T02:29:19.991Z,6.20
2022-07-31T02:32:06.941Z,5.82
2022-07-31T02:34:55.622Z,6.22
2022-07-31T02:37:42.702Z,12.93
2022-07-31T02:40:28.514Z,7.30
2022-07-31T02:43:15.255Z,10.25
2022-07-31T02:46:01.755Z,6.32
2022-07-31T02:48:49.411Z,5.40
2022-07-31T02:51:41.027Z,5.20
2022-07-31T02:54:29.208Z,5.63
2022-07-31T02:57:14.529Z,6.20
2022-07-31T02:59:59.881Z,5.78
2022-07-31T03:02:45.616Z,5.90
2022-07-31T03:05:31.362Z,6.28
2022-07-31T03:08:16.860Z,6.78
2022-07-31T03:11:05.001Z,5.82
2022-07-31T03:13:53.825Z,5.95
2022-07-31T03:16:44.450Z,6.18
2022-07-31T03:19:30.778Z,7.00
2022-07-31T03:22:16.284Z,5.88
2022-07-31T03:25:03.747Z,6.65
2022-07-31T03:27:55.898Z,6.28
2022-07-31T03:30:42.423Z,7.00
2022-07-31T03:33:28.464Z,6.70
2022-07-31T03:36:14.079Z,7.18
2022-07-31T03:38:59.959Z,8.93
2022-07-31T03:41:55.622Z,9.63
2022-07-31T03:44:41.850Z,8.02
2022-07-31T03:47:27.458Z,8.73
2022-07-31T03:50:14.765Z,6.07
2022-07-31T03:53:00.691Z,7.47
2022-07-31T03:55:46.188Z,6.15
2022-07-31T03:58:32.200Z,5.80
2022-07-31T04:01:20.642Z,6.15
2022-07-31T04:04:07.876Z,6.43
2022-07-31T04:06:57.450Z,6.93
2022-07-31T04:09:42.879Z,6.13
2022-07-31T04:12:29.950Z,6.25
2022-07-31T04:15:15.371Z,5.85
2022-07-31T04:18:00.796Z,6.40
2022-07-31T04:20:59.791Z,6.18
2022-07-31T04:23:48.262Z,5.95
2022-07-31T04:26:45.986Z,5.65
2022-07-31T04:29:31.612Z,6.05
2022-07-31T04:32:16.979Z,6.15
2022-07-31T04:35:09.131Z,5.72
2022-07-31T04:37:54.772Z,5.38
2022-07-31T04:40:41.156Z,5.22
2022-07-31T04:43:26.639Z,6.10
2022-07-31T04:46:17.209Z,6.22
2022-07-31T04:49:04.009Z,6.00
2022-07-31T04:51:49.410Z,6.57
2022-07-31T04:54:34.863Z,5.78
2022-07-31T04:57:22.242Z,6.50
2022-07-31T05:00:10.364Z,6.00
2022-07-31T05:02:56.027Z,5.72
2022-07-31T05:05:45.296Z,5.45
2022-07-31T05:08:30.978Z,7.90
2022-07-31T05:11:22.400Z,5.82
2022-07-31T05:14:09.993Z,6.13
2022-07-31T05:16:55.292Z,5.85
2022-07-31T05:19:41.415Z,5.63
2022-07-31T05:22:55.993Z,5.60
2022-07-31T05:26:01.932Z,4.88
2022-07-31T05:28:49.491Z,5.20
2022-07-31T05:31:35.427Z,7.78
2022-07-31T05:34:20.676Z,5.90
2022-07-31T05:37:06.210Z,5.22
2022-07-31T05:39:54.533Z,5.38
2022-07-31T05:42:58.181Z,5.05
2022-07-31T05:46:06.093Z,5.30
2022-07-31T05:48:51.659Z,5.70
2022-07-31T05:51:38.750Z,5.47
2022-07-31T05:54:24.442Z,4.70
2022-07-31T05:57:33.340Z,5.40
2022-07-31T06:00:22.709Z,5.47
2022-07-31T06:03:08.174Z,5.20
2022-07-31T06:06:17.014Z,4.60
2022-07-31T06:09:04.763Z,4.50
2022-07-31T06:11:54.630Z,4.35
2022-07-31T06:14:39.782Z,4.70
2022-07-31T06:17:40.359Z,4.68
2022-07-31T06:20:38.002Z,4.43
2022-07-31T06:23:32.314Z,4.55
2022-07-31T06:26:32.858Z,5.28
2022-07-31T06:29:18.183Z,4.45
2022-07-31T06:32:04.405Z,4.78
2022-07-31T06:34:50.371Z,4.07
2022-07-31T06:37:36.035Z,3.80
2022-07-31T06:40:21.108Z,4.72
2022-07-31T06:43:26.366Z,4.60
2022-07-31T06:46:31.664Z,4.80
2022-07-31T06:49:35.627Z,4.47
2022-07-31T06:52:21.153Z,4.40
2022-07-31T06:55:07.760Z,3.83
2022-07-31T06:57:52.944Z,4.57
2022-07-31T07:00:38.482Z,4.22
2022-07-31T07:03:23.891Z,4.18
2022-07-31T07:06:09.107Z,5.10
2022-07-31T07:08:54.379Z,4.50
2022-07-31T07:11:40.820Z,4.65
2022-07-31T07:14:26.345Z,4.78
2022-07-31T07:17:11.829Z,5.03
2022-07-31T07:19:57.222Z,4.68
2022-07-31T07:22:42.269Z,5.45
2022-07-31T07:25:29.788Z,4.95
2022-07-31T07:28:30.700Z,5.00
2022-07-31T07:31:17.791Z,5.22
2022-07-31T07:34:06.219Z,5.53
2022-07-31T07:36:51.986Z,4.78
2022-07-31T07:39:44.961Z,4.25
2022-07-31T07:42:30.816Z,4.43
2022-07-31T07:45:16.041Z,4.60
2022-07-31T07:48:06.360Z,4.50
2022-07-31T07:51:00.165Z,4.35
2022-07-31T07:54:17.283Z,4.15
2022-07-31T07:57:36.318Z,4.50
2022-07-31T08:03:49.597Z,3.72
2022-07-31T08:06:24.491Z,4.10
2022-07-31T08:09:09.677Z,4.70
2022-07-31T08:12:13.831Z,4.30
2022-07-31T08:15:17.823Z,4.50
2022-07-31T08:18:32.211Z,4.25
2022-07-31T08:21:17.626Z,4.18
2022-07-31T08:24:02.814Z,3.85
2022-07-31T08:27:10.624Z,4.22
2022-07-31T08:30:01.610Z,3.95
2022-07-31T08:32:49.571Z,3.42
2022-07-31T08:35:39.900Z,3.83
2022-07-31T08:38:31.273Z,3.50
2022-07-31T08:41:38.887Z,3.67
2022-07-31T08:44:26.484Z,3.60
2022-07-31T08:47:17.217Z,3.50
2022-07-31T08:50:09.660Z,3.70
2022-07-31T08:52:58.838Z,3.38
2022-07-31T08:56:03.182Z,3.47
2022-07-31T08:58:51.895Z,3.83
2022-07-31T09:01:39.890Z,3.80
2022-07-31T09:04:25.482Z,3.58
2022-07-31T09:07:15.453Z,3.10
2022-07-31T09:10:03.095Z,3.17
2022-07-31T09:12:48.284Z,3.30
2022-07-31T09:15:36.139Z,2.85
2022-07-31T09:18:24.730Z,3.25
2022-07-31T09:21:20.056Z,3.10
2022-07-31T09:24:06.155Z,3.03
2022-07-31T09:27:01.197Z,3.55
2022-07-31T09:29:50.979Z,3.10
2022-07-31T09:32:51.843Z,3.08
2022-07-31T09:35:52.375Z,3.35
2022-07-31T09:38:41.055Z,3.50
2022-07-31T09:41:56.415Z,3.58
2022-07-31T09:45:24.201Z,3.55
2022-07-31T09:48:15.161Z,3.50
2022-07-31T09:51:08.310Z,3.88
2022-07-31T09:53:58.691Z,3.35
2022-07-31T09:57:12.439Z,3.28
2022-07-31T10:00:12.805Z,3.33
2022-07-31T10:03:06.110Z,3.63
2022-07-31T10:05:54.469Z,3.23
2022-07-31T10:08:41.570Z,3.50
2022-07-31T10:11:52.937Z,3.35
2022-07-31T10:14:43.414Z,3.08
2022-07-31T10:20:39.487Z,3.30
2022-07-31T10:23:46.215Z,3.55
2022-07-31T10:26:57.670Z,3.05
2022-07-31T10:29:41.760Z,3.38
2022-07-31T10:32:28.552Z,3.45
2022-07-31T10:35:40.892Z,3.17
2022-07-31T10:38:58.564Z,3.65
2022-07-31T10:42:38.521Z,3.45
2022-07-31T10:45:24.330Z,3.15
2022-07-31T10:48:15.965Z,3.00
2022-07-31T10:51:26.683Z,3.20
2022-07-31T10:54:47.078Z,3.42
2022-07-31T10:57:56.397Z,2.92
2022-07-31T11:01:07.607Z,2.63
2022-07-31T11:04:11.723Z,2.53
2022-07-31T11:07:19.849Z,2.60
2022-07-31T11:10:23.592Z,2.80
2022-07-31T11:13:18.029Z,3.05
2022-07-31T11:16:07.461Z,2.92
2022-07-31T11:19:06.637Z,3.15
2022-07-31T11:21:57.206Z,3.05
2022-07-31T11:24:43.269Z,3.20
2022-07-31T11:27:32.723Z,2.90
2022-07-31T11:30:18.096Z,2.80
2022-07-31T11:33:03.562Z,3.50
2022-07-31T11:35:49.199Z,3.53
2022-07-31T11:38:34.491Z,2.90
2022-07-31T11:41:23.117Z,2.90
2022-07-31T11:44:08.554Z,3.08
2022-07-31T11:46:54.796Z,2.75
2022-07-31T11:49:48.507Z,3.10
2022-07-31T11:52:37.516Z,2.97
2022-07-31T11:55:23.283Z,3.05
2022-07-31T11:58:11.184Z,2.63
2022-07-31T12:00:59.103Z,3.10
2022-07-31T12:03:45.965Z,3.15
2022-07-31T12:06:36.337Z,2.75
2022-07-31T12:10:02.749Z,2.75
2022-07-31T12:12:27.691Z,3.08
2022-07-31T12:15:18.523Z,3.38
2022-07-31T12:18:05.407Z,2.97
2022-07-31T12:20:57.149Z,3.42
2022-07-31T12:23:52.594Z,2.78
2022-07-31T12:26:38.103Z,3.83
2022-07-31T12:29:34.601Z,3.30
2022-07-31T12:32:27.001Z,2.92
2022-07-31T12:35:12.377Z,3.50
2022-07-31T12:37:58.550Z,3.30
2022-07-31T12:40:43.981Z,2.75
2022-07-31T12:43:29.669Z,2.80
2022-07-31T12:46:14.764Z,3.00
2022-07-31T12:49:00.003Z,3.22
2022-07-31T12:51:47.565Z,3.53
2022-07-31T12:54:36.547Z,2.92
2022-07-31T12:57:24.628Z,2.63
2022-07-31T13:00:10.669Z,2.15
2022-07-31T13:02:57.673Z,2.88
2022-07-31T13:05:43.304Z,2.15
2022-07-31T13:08:29.266Z,2.10
2022-07-31T13:11:18.193Z,2.35
2022-07-31T13:14:03.328Z,2.35
2022-07-31T13:16:51.738Z,2.33
2022-07-31T13:19:36.888Z,4.18
2022-07-31T13:22:22.207Z,3.50
2022-07-31T13:25:07.867Z,2.42
2022-07-31T13:27:53.288Z,2.08
2022-07-31T13:30:38.582Z,2.53
2022-07-31T13:33:23.680Z,2.17
2022-07-31T13:36:08.866Z,2.45
2022-07-31T13:38:53.909Z,2.15
2022-07-31T13:41:39.957Z,2.70
2022-07-31T13:44:25.808Z,2.17
2022-07-31T13:47:10.981Z,2.60
2022-07-31T13:49:56.311Z,2.03
2022-07-31T13:52:41.919Z,2.20
2022-07-31T13:55:27.088Z,2.42
2022-07-31T13:58:12.372Z,2.50
2022-07-31T14:01:01.457Z,2.38
2022-07-31T14:03:49.726Z,2.00
2022-07-31T14:06:35.622Z,2.08
2022-07-31T14:09:20.587Z,2.40
2022-07-31T14:12:06.715Z,2.22
2022-07-31T14:14:52.877Z,2.33
2022-07-31T14:17:38.228Z,2.33
2022-07-31T14:20:23.691Z,2.58
2022-07-31T14:23:09.300Z,2.35
2022-07-31T14:25:54.886Z,1.92
2022-07-31T14:28:40.120Z,2.25
2022-07-31T14:31:25.307Z,1.95
2022-07-31T14:34:10.716Z,2.55
2022-07-31T14:36:56.060Z,2.60
2022-07-31T14:39:42.604Z,2.15
2022-07-31T14:42:28.590Z,2.35
2022-07-31T14:45:14.035Z,2.20
2022-07-31T14:47:59.350Z,1.95
2022-07-31T14:50:44.657Z,1.88
2022-07-31T14:53:29.958Z,2.05
2022-07-31T14:56:23.443Z,1.80
2022-07-31T14:59:20.274Z,1.92
2022-07-31T15:02:06.009Z,2.60
2022-07-31T15:04:52.288Z,2.47
2022-07-31T15:07:43.812Z,2.80
2022-07-31T15:10:31.595Z,2.08
2022-07-31T15:13:16.808Z,2.17
2022-07-31T15:16:02.518Z,2.33
2022-07-31T15:18:51.301Z,2.30
2022-07-31T15:21:37.420Z,2.00
2022-07-31T15:24:22.898Z,1.98
2022-07-31T15:27:08.552Z,2.17
2022-07-31T15:30:04.404Z,1.90
2022-07-31T15:32:53.133Z,1.98
2022-07-31T15:35:38.467Z,1.83
2022-07-31T15:38:23.734Z,1.90
2022-07-31T15:41:08.981Z,2.08
2022-07-31T15:43:54.184Z,2.83
2022-07-31T15:46:39.412Z,2.10
2022-07-31T15:49:25.141Z,1.90
2022-07-31T15:52:16.783Z,2.08
2022-07-31T15:55:06.168Z,2.00
2022-07-31T15:57:51.553Z,1.67
2022-07-31T16:00:36.933Z,1.83
2022-07-31T16:03:22.574Z,2.78
2022-07-31T16:06:14.808Z,2.90
2022-07-31T16:09:00.144Z,2.65
2022-07-31T16:12:04.299Z,2.00
2022-07-31T16:14:51.010Z,1.77
2022-07-31T16:17:38.766Z,2.47
2022-07-31T16:20:26.207Z,1.90
2022-07-31T16:23:12.502Z,1.85
2022-07-31T16:25:57.765Z,2.08
2022-07-31T16:28:42.979Z,2.15
2022-07-31T16:31:30.016Z,1.80
2022-07-31T16:34:16.230Z,2.00
2022-07-31T16:37:01.791Z,1.85
2022-07-31T16:39:48.345Z,2.58
2022-07-31T16:42:33.893Z,1.98
2022-07-31T16:45:20.091Z,1.90
2022-07-31T16:48:05.918Z,2.22
2022-07-31T16:50:53.747Z,2.80
2022-07-31T16:54:14.326Z,2.45
2022-07-31T16:56:44.897Z,1.63
2022-07-31T16:59:30.186Z,1.70
2022-07-31T17:02:16.578Z,1.90
2022-07-31T17:05:01.936Z,2.00
2022-07-31T17:07:47.020Z,1.90
2022-07-31T17:10:33.609Z,1.90
2022-07-31T17:13:19.496Z,1.70
2022-07-31T17:16:05.338Z,1.80
2022-07-31T17:18:52.601Z,1.98
2022-07-31T17:27:14.754Z,1.65
2022-07-31T17:30:00.350Z,1.85
2022-07-31T17:32:45.816Z,1.63
2022-07-31T17:35:30.896Z,1.80
2022-07-31T17:38:16.302Z,1.45
2022-07-31T17:41:03.100Z,1.80
2022-07-31T17:43:50.491Z,2.72
2022-07-31T17:49:34.419Z,2.42
2022-07-31T17:52:20.934Z,2.85
2022-07-31T17:55:08.006Z,2.28
2022-07-31T17:57:53.374Z,2.30
2022-07-31T18:00:39.032Z,1.67
2022-07-31T18:03:24.186Z,2.00
2022-07-31T18:06:09.504Z,1.65
2022-07-31T18:08:54.854Z,2.15
2022-07-31T18:11:39.884Z,1.60
2022-07-31T18:14:25.762Z,2.10
2022-07-31T18:17:11.021Z,2.00
2022-07-31T18:19:56.927Z,2.08
2022-07-31T18:22:49.284Z,2.60
2022-07-31T18:25:35.483Z,2.78
2022-07-31T18:28:20.728Z,2.60
2022-07-31T18:31:06.259Z,3.47
2022-07-31T18:34:11.799Z,2.60
2022-07-31T18:36:58.090Z,2.30
2022-07-31T18:39:48.656Z,2.88
2022-07-31T18:42:34.624Z,3.13
2022-07-31T18:45:19.976Z,2.78
2022-07-31T18:48:05.582Z,2.97
2022-07-31T18:50:58.981Z,2.10
2022-07-31T18:53:49.379Z,2.08
2022-07-31T18:56:34.801Z,2.03
2022-07-31T18:59:20.308Z,2.30
2022-07-31T19:02:06.455Z,2.45
2022-07-31T19:04:56.679Z,3.65
2022-07-31T19:07:41.780Z,3.78
2022-07-31T19:10:29.523Z,2.80
2022-07-31T19:16:05.176Z,3.25
2022-07-31T19:18:51.304Z,1.85
2022-07-31T19:21:42.167Z,2.05
2022-07-31T19:24:28.531Z,2.50
2022-07-31T19:27:13.990Z,2.42
2022-07-31T19:29:59.906Z,2.67
2022-07-31T19:32:45.174Z,2.22
2022-07-31T19:35:30.391Z,2.58
2022-07-31T19:38:15.840Z,2.08
2022-07-31T19:41:01.322Z,2.20
2022-07-31T19:43:46.868Z,2.25
2022-07-31T19:46:32.736Z,2.30
2022-07-31T19:49:18.495Z,1.92
2022-07-31T19:52:04.139Z,2.35
2022-07-31T19:54:49.756Z,2.67
2022-07-31T19:57:35.630Z,2.22
2022-07-31T20:00:21.493Z,2.30
2022-07-31T20:03:06.935Z,2.63
2022-07-31T20:05:52.613Z,2.55
2022-07-31T20:08:37.908Z,2.95
2022-07-31T20:11:23.556Z,2.70
2022-07-31T20:14:08.590Z,2.80
2022-07-31T20:16:53.806Z,3.20
2022-07-31T20:20:13.308Z,3.53
2022-07-31T20:22:44.538Z,3.47
2022-07-31T20:25:29.829Z,3.65
2022-07-31T20:28:14.800Z,4.45
2022-07-31T20:31:00.325Z,3.65
2022-07-31T20:33:57.087Z,4.20
2022-07-31T20:36:43.425Z,3.38
2022-07-31T20:39:33.970Z,3.70
2022-07-31T20:42:19.803Z,3.22
2022-07-31T20:45:05.650Z,4.05
2022-07-31T20:47:53.068Z,5.75
2022-07-31T20:50:38.627Z,4.10
2022-07-31T20:53:24.487Z,3.90
2022-07-31T20:56:10.003Z,4.10
2022-07-31T20:58:55.195Z,4.28
2022-07-31T21:01:42.241Z,4.55
2022-07-31T21:04:27.577Z,4.88
2022-07-31T21:07:12.955Z,4.78
2022-07-31T21:09:58.507Z,5.30
2022-07-31T21:12:43.699Z,5.95
2022-07-31T21:15:42.926Z,5.47
2022-07-31T21:18:34.555Z,5.88
2022-07-31T21:21:21.644Z,6.35
2022-07-31T21:24:06.939Z,5.68
2022-07-31T21:26:55.124Z,6.15
2022-07-31T21:29:43.696Z,6.80
2022-07-31T21:32:29.214Z,7.72
2022-07-31T21:35:15.723Z,7.07
2022-07-31T21:38:22.013Z,9.25
2022-07-31T21:41:12.684Z,9.95
2022-07-31T21:43:59.839Z,8.77
2022-07-31T21:46:51.916Z,6.63
2022-07-31T21:49:38.266Z,6.35
2022-07-31T21:52:23.984Z,5.90
2022-07-31T21:55:09.673Z,6.55
2022-07-31T21:57:59.161Z,5.65
2022-07-31T22:00:45.719Z,6.45
2022-07-31T22:03:31.936Z,5.28
2022-07-31T22:06:35.831Z,3.72
2022-07-31T22:09:24.658Z,3.50
2022-07-31T22:12:10.465Z,3.55
2022-07-31T22:14:55.985Z,4.20
2022-07-31T22:17:41.643Z,3.95
2022-07-31T22:20:27.331Z,4.60
2022-07-31T22:23:13.148Z,4.32
2022-07-31T22:25:59.072Z,4.25
2022-07-31T22:28:44.319Z,2.22
2022-07-31T22:31:29.732Z,2.50
2022-07-31T22:34:15.155Z,2.25
2022-07-31T22:37:20.962Z,2.38
2022-07-31T22:40:08.133Z,2.50
2022-07-31T22:42:56.109Z,2.50
2022-07-31T22:45:42.219Z,2.50
2022-07-31T22:48:27.968Z,3.10
2022-07-31T22:51:14.861Z,2.65
2022-07-31T22:54:01.021Z,3.60
2022-07-31T22:56:46.399Z,3.50
2022-07-31T22:59:32.036Z,2.90
2022-07-31T23:02:18.597Z,3.05
2022-07-31T23:05:05.491Z,2.92
2022-07-31T23:07:50.396Z,3.10
2022-07-31T23:10:35.542Z,3.55
2022-07-31T23:13:20.725Z,3.42
2022-07-31T23:16:06.048Z,3.72
2022-07-31T23:18:51.213Z,3.60
2022-07-31T23:21:36.993Z,3.70
2022-07-31T23:24:25.394Z,3.83
2022-07-31T23:27:10.779Z,3.70
2022-07-31T23:29:56.164Z,4.18
2022-07-31T23:32:41.470Z,4.07
2022-07-31T23:35:26.622Z,3.80
2022-07-31T23:38:11.903Z,5.05
2022-07-31T23:40:57.140Z,3.67
2022-07-31T23:43:54.083Z,4.03
2022-07-31T23:46:40.378Z,4.43
2022-07-31T23:49:26.005Z,3.55
2022-07-31T23:52:11.630Z,3.97
2022-07-31T23:54:57.406Z,4.43
2022-07-31T23:57:42.883Z,3.35
